Washington, NC

1:40 PM EST en Diciembre 21, 2014 (GMT -0500)
Washington On The River | Change Station
CLOSE
Current Station
Estación meteorológica personal
Location: Washington, NC
Altura: 20 ft
Estaciones meteorológicas cercanas

Alt 20 ft 35.54 °N, 77.04 °W | Updated 5 seconds ago

Overcast
Nublado
46.6 ° F
Sensación térmica 47 ° F
N
0.0
Viento Variable Viento desde ENE
Gusts 9.2 mph

Hoy
Alta -- | Baja -- ° F
--% Posibilidad de precipitaciones
Ayer
Alta -- | Baja -- ° F
Precip. -- pul
7:13 AM 4:58 PM
Creciente menguante, 0% visible
Presión 30.27 pul
Visibilidad 10.0 Millas
Nubes Nublado 6500 ft
Vientos helados 47 ° F
Punto de rocío 32 ° F
Humedad 53%
Precipitaciones 0.00 pul
Espesor de la nieve No disponible.
UV 0.0 de una escala de 12
Polen .10 de una escala de 12
Calidad del aire No disponible.
Flu Activity No disponible.
METAR KOCW 211815Z AUTO 03007KT 10SM OVC065 08/00 A3027 RMK AO2 T00781001

More Conditions Fewer Conditions

Presión 30.27 pul
Visibilidad 10.0 Millas
Nubes Nublado 6500 ft
Vientos helados 47 ° F
Punto de rocío 32 ° F
Humedad 53%
Precipitaciones 0.00 pul
Espesor de la nieve No disponible.
UV 0.0 de una escala de 12
Polen .10 de una escala de 12
Calidad del aire No disponible.
Flu Activity No disponible.
METAR KOCW 211815Z AUTO 03007KT 10SM OVC065 08/00 A3027 RMK AO2 T00781001

More Conditions Fewer Conditions

10-Day Weather Forecast

Almanac

Astronomía

Dec. 21, 2014 Salida Puesta
Hora real
Crepúsculo civil
Crepúsculo náutico
Crepúsculo astronómico
Luna
Horas de luz
Horas de luz
Tomorrow will be .
, % of the Moon is Illuminated

Extremos de hoy

Máximos del estado Bajos del estado

Community

WunderPhotos

Upload Photos

1,779,451 ¡fotos cargadas!

WunderBlogs® & News

Nearby

Calidad del aire

  Calidad del aire Índice AQ Contaminante
Not available.

Grosos de nieve

Estación Profundido Altura

Actividad de terremotos

Ciudad Distance Mag. Tiempo y dato
Magnitud mínima muestra es 2,5.

Temperaturas de aguas costeras

Lugar Temperatura

Estaciones meteorológicas cercanas